createdAt,value
2022-07-31T00:00:19.258Z,5.72
2022-07-31T00:02:46.782Z,3.30
2022-07-31T00:05:13.958Z,2.85
2022-07-31T00:07:40.937Z,3.10
2022-07-31T00:10:08.181Z,3.35
2022-07-31T00:12:35.214Z,2.38
2022-07-31T00:15:04.324Z,5.97
2022-07-31T00:17:32.771Z,2.55
2022-07-31T00:19:59.623Z,3.88
2022-07-31T00:22:26.393Z,3.22
2022-07-31T00:24:53.124Z,2.55
2022-07-31T00:27:19.902Z,3.53
2022-07-31T00:29:46.742Z,3.80
2022-07-31T00:32:13.492Z,2.05
2022-07-31T00:34:40.213Z,4.63
2022-07-31T00:37:07.119Z,4.75
2022-07-31T00:39:34.189Z,3.58
2022-07-31T00:42:00.839Z,7.38
2022-07-31T00:44:27.613Z,3.60
2022-07-31T00:46:54.612Z,4.38
2022-07-31T00:49:22.313Z,2.50
2022-07-31T00:51:49.223Z,2.72
2022-07-31T00:54:23.049Z,3.75
2022-07-31T00:56:51.263Z,2.63
2022-07-31T00:59:24.305Z,3.45
2022-07-31T01:01:51.770Z,2.05
2022-07-31T01:04:19.057Z,3.15
2022-07-31T01:06:47.262Z,3.65
2022-07-31T01:09:14.722Z,2.70
2022-07-31T01:11:50.651Z,4.95
2022-07-31T01:14:20.641Z,5.03
2022-07-31T01:16:49.972Z,2.60
2022-07-31T01:19:39.671Z,2.67
2022-07-31T01:22:33.362Z,2.97
2022-07-31T01:25:07.812Z,3.78
2022-07-31T01:28:14.007Z,3.15
2022-07-31T01:30:53.023Z,2.80
2022-07-31T01:33:32.752Z,3.85
2022-07-31T01:36:06.703Z,2.10
2022-07-31T01:38:42.417Z,4.35
2022-07-31T01:41:14.971Z,2.60
2022-07-31T01:43:44.284Z,2.78
2022-07-31T01:46:14.059Z,4.47
2022-07-31T01:48:41.574Z,6.22
2022-07-31T01:51:09.812Z,2.88
2022-07-31T01:53:39.036Z,3.70
2022-07-31T01:56:07.501Z,2.28
2022-07-31T01:58:38.041Z,4.10
2022-07-31T02:01:08.918Z,7.00
2022-07-31T02:03:43.891Z,2.85
2022-07-31T02:06:17.106Z,2.15
2022-07-31T02:08:50.446Z,7.82
2022-07-31T02:11:19.995Z,3.83
2022-07-31T02:13:48.325Z,8.90
2022-07-31T02:16:17.369Z,3.58
2022-07-31T02:18:44.122Z,3.58
2022-07-31T02:21:11.054Z,2.80
2022-07-31T02:23:38.481Z,5.90
2022-07-31T02:26:07.181Z,7.57
2022-07-31T02:28:37.947Z,2.83
2022-07-31T02:31:10.194Z,2.83
2022-07-31T02:33:38.106Z,4.80
2022-07-31T02:36:06.615Z,4.47
2022-07-31T02:38:34.782Z,3.13
2022-07-31T02:41:05.098Z,4.45
2022-07-31T02:43:34.886Z,4.35
2022-07-31T02:46:03.214Z,3.80
2022-07-31T02:48:30.991Z,3.38
2022-07-31T02:50:58.443Z,3.08
2022-07-31T02:53:25.690Z,10.40
2022-07-31T02:55:52.801Z,3.70
2022-07-31T02:58:19.993Z,4.15
2022-07-31T03:00:46.934Z,5.07
2022-07-31T03:03:14.114Z,3.92
2022-07-31T03:05:40.968Z,2.45
2022-07-31T03:08:07.696Z,3.22
2022-07-31T03:10:34.522Z,4.78
2022-07-31T03:13:02.675Z,4.65
2022-07-31T03:15:32.032Z,3.40
2022-07-31T03:17:59.148Z,2.85
2022-07-31T03:20:26.919Z,5.38
2022-07-31T03:22:53.980Z,3.35
2022-07-31T03:25:21.915Z,5.90
2022-07-31T03:27:56.142Z,4.15
2022-07-31T03:30:27.415Z,4.30
2022-07-31T03:32:57.833Z,3.75
2022-07-31T03:35:25.353Z,5.82
2022-07-31T03:37:55.597Z,4.07
2022-07-31T03:40:22.461Z,3.10
2022-07-31T03:42:50.260Z,6.28
2022-07-31T03:45:18.688Z,6.18
2022-07-31T03:47:45.462Z,3.25
2022-07-31T03:50:13.276Z,5.43
2022-07-31T03:52:40.144Z,3.13
2022-07-31T03:55:08.493Z,3.28
2022-07-31T03:57:37.208Z,2.97
2022-07-31T04:00:07.921Z,4.18
2022-07-31T04:02:44.497Z,3.90
2022-07-31T04:05:11.400Z,4.22
2022-07-31T04:07:38.095Z,4.78
2022-07-31T04:10:05.159Z,3.78
2022-07-31T04:12:31.858Z,3.88
2022-07-31T04:14:58.587Z,4.32
2022-07-31T04:17:25.426Z,4.85
2022-07-31T04:19:52.186Z,3.30
2022-07-31T04:22:19.118Z,2.97
2022-07-31T04:24:45.804Z,3.80
2022-07-31T04:27:15.081Z,3.00
2022-07-31T04:29:42.022Z,2.97
2022-07-31T04:32:08.727Z,2.97
2022-07-31T04:34:36.005Z,3.95
2022-07-31T04:37:03.226Z,6.28
2022-07-31T04:39:30.103Z,7.25
2022-07-31T04:41:56.975Z,2.95
2022-07-31T04:44:23.979Z,2.40
2022-07-31T04:46:50.766Z,4.18
2022-07-31T04:49:17.670Z,4.07
2022-07-31T04:51:44.512Z,5.18
2022-07-31T04:54:11.339Z,2.75
2022-07-31T04:56:42.160Z,4.50
2022-07-31T04:59:11.831Z,3.05
2022-07-31T05:01:39.602Z,2.63
2022-07-31T05:04:08.182Z,3.00
2022-07-31T05:06:47.098Z,2.20
2022-07-31T05:09:23.577Z,3.58
2022-07-31T05:11:52.947Z,2.53
2022-07-31T05:14:21.461Z,4.22
2022-07-31T05:16:48.728Z,2.65
2022-07-31T05:19:15.846Z,4.93
2022-07-31T05:21:54.069Z,3.00
2022-07-31T05:24:33.396Z,2.13
2022-07-31T05:27:02.369Z,3.28
2022-07-31T05:29:29.711Z,2.78
2022-07-31T05:31:59.725Z,4.95
2022-07-31T05:34:36.815Z,4.50
2022-07-31T05:37:03.906Z,4.45
2022-07-31T05:39:30.913Z,2.22
2022-07-31T05:41:57.737Z,5.93
2022-07-31T05:44:24.712Z,2.78
2022-07-31T05:49:18.027Z,5.70
2022-07-31T05:51:45.441Z,5.63
2022-07-31T05:54:12.285Z,3.83
2022-07-31T05:56:39.141Z,4.45
2022-07-31T05:59:05.926Z,2.72
2022-07-31T06:01:32.861Z,2.95
2022-07-31T06:03:59.762Z,2.90
2022-07-31T06:06:26.514Z,2.90
2022-07-31T06:08:53.192Z,3.13
2022-07-31T06:11:20.228Z,5.03
2022-07-31T06:13:46.919Z,1.83
2022-07-31T06:16:14.970Z,4.00
2022-07-31T06:18:42.532Z,2.60
2022-07-31T06:21:09.735Z,2.85
2022-07-31T06:23:36.576Z,5.35
2022-07-31T06:26:04.287Z,4.15
2022-07-31T06:28:47.913Z,2.72
2022-07-31T06:31:20.838Z,4.20
2022-07-31T06:33:51.003Z,3.20
2022-07-31T06:36:19.492Z,3.17
2022-07-31T06:38:46.375Z,3.63
2022-07-31T06:41:33.574Z,4.55
2022-07-31T06:44:00.353Z,2.45
2022-07-31T06:46:27.126Z,2.35
2022-07-31T06:48:53.880Z,2.83
2022-07-31T06:51:30.707Z,4.82
2022-07-31T06:53:59.567Z,3.13
2022-07-31T06:56:26.273Z,4.97
2022-07-31T06:58:53.340Z,3.42
2022-07-31T07:01:20.193Z,3.38
2022-07-31T07:03:47.607Z,4.80
2022-07-31T07:06:14.992Z,2.95
2022-07-31T07:08:42.521Z,4.47
2022-07-31T07:11:12.311Z,2.22
2022-07-31T07:13:45.876Z,4.65
2022-07-31T07:16:14.693Z,5.72
2022-07-31T07:18:41.469Z,6.80
2022-07-31T07:21:08.167Z,4.93
2022-07-31T07:23:35.902Z,9.70
2022-07-31T07:26:03.091Z,4.72
2022-07-31T07:28:31.119Z,5.50
2022-07-31T07:30:58.113Z,6.32
2022-07-31T07:33:39.728Z,11.77
2022-07-31T07:36:08.960Z,11.30
2022-07-31T07:38:55.611Z,11.65
2022-07-31T07:41:24.282Z,9.05
2022-07-31T07:43:52.378Z,11.10
2022-07-31T07:46:23.548Z,7.55
2022-07-31T07:48:51.677Z,8.80
2022-07-31T07:51:19.506Z,9.02
2022-07-31T07:53:46.549Z,9.88
2022-07-31T07:56:13.262Z,10.68
2022-07-31T07:58:40.774Z,11.23
2022-07-31T08:01:07.759Z,11.00
2022-07-31T08:03:48.967Z,12.15
2022-07-31T08:06:20.192Z,9.40
2022-07-31T08:08:47.412Z,7.85
2022-07-31T08:11:17.461Z,12.35
2022-07-31T08:13:50.074Z,10.80
2022-07-31T08:16:17.147Z,8.52
2022-07-31T08:18:43.828Z,8.90
2022-07-31T08:21:10.602Z,10.25
2022-07-31T08:23:37.811Z,7.28
2022-07-31T08:26:04.608Z,11.85
2022-07-31T08:28:33.409Z,8.93
2022-07-31T08:31:01.879Z,9.23
2022-07-31T08:33:28.708Z,8.52
2022-07-31T08:35:55.665Z,8.20
2022-07-31T08:38:22.373Z,10.70
2022-07-31T08:40:49.164Z,9.63
2022-07-31T08:46:04.678Z,9.68
2022-07-31T08:48:33.279Z,11.90
2022-07-31T08:51:03.465Z,8.15
2022-07-31T08:53:32.974Z,9.80
2022-07-31T08:56:00.491Z,9.32
2022-07-31T08:58:27.355Z,8.68
2022-07-31T09:00:54.911Z,6.55
2022-07-31T09:03:21.711Z,8.55
2022-07-31T09:05:48.878Z,7.95
2022-07-31T09:08:15.779Z,7.22
2022-07-31T09:10:49.103Z,7.88
2022-07-31T09:13:18.150Z,6.85
2022-07-31T09:15:45.211Z,9.23
2022-07-31T09:18:22.137Z,6.25
2022-07-31T09:20:58.197Z,7.75
2022-07-31T09:23:26.573Z,10.70
2022-07-31T09:26:07.537Z,10.35
2022-07-31T09:28:39.535Z,9.43
2022-07-31T09:31:08.773Z,9.60
2022-07-31T09:33:45.210Z,7.50
2022-07-31T09:36:13.704Z,8.65
2022-07-31T09:38:43.272Z,6.53
2022-07-31T09:41:23.160Z,9.50
2022-07-31T09:44:10.544Z,6.55
2022-07-31T09:46:46.655Z,7.57
2022-07-31T09:49:14.372Z,4.03
2022-07-31T09:51:43.246Z,4.95
2022-07-31T09:54:27.315Z,8.32
2022-07-31T09:56:54.092Z,4.78
2022-07-31T09:59:21.056Z,4.85
2022-07-31T10:01:49.130Z,6.40
2022-07-31T10:04:21.358Z,4.78
2022-07-31T10:06:51.176Z,5.07
2022-07-31T10:09:21.608Z,5.53
2022-07-31T10:11:50.143Z,4.78
2022-07-31T10:14:22.455Z,6.90
2022-07-31T10:16:52.672Z,4.65
2022-07-31T10:19:20.669Z,6.43
2022-07-31T10:21:57.193Z,6.32
2022-07-31T10:24:28.289Z,4.05
2022-07-31T10:27:10.842Z,6.22
2022-07-31T10:29:40.514Z,6.95
2022-07-31T10:32:11.507Z,5.38
2022-07-31T10:34:38.976Z,5.90
2022-07-31T10:37:34.843Z,6.05
2022-07-31T10:40:06.674Z,5.13
2022-07-31T10:42:42.898Z,6.28
2022-07-31T10:45:16.567Z,7.47
2022-07-31T10:47:57.304Z,7.25
2022-07-31T10:50:25.900Z,5.45
2022-07-31T10:52:57.290Z,5.10
2022-07-31T10:55:27.198Z,5.68
2022-07-31T10:57:56.203Z,5.32
2022-07-31T11:00:28.523Z,5.60
2022-07-31T11:02:57.001Z,7.68
2022-07-31T11:05:28.572Z,7.68
2022-07-31T11:08:06.165Z,6.88
2022-07-31T11:10:34.153Z,5.13
2022-07-31T11:13:07.491Z,6.07
2022-07-31T11:15:34.759Z,6.07
2022-07-31T11:18:24.868Z,6.35
2022-07-31T11:21:09.474Z,4.63
2022-07-31T11:23:57.672Z,5.75
2022-07-31T11:26:33.294Z,4.60
2022-07-31T11:29:58.942Z,4.72
2022-07-31T11:31:55.545Z,3.67
2022-07-31T11:34:22.407Z,3.63
2022-07-31T11:36:51.722Z,5.88
2022-07-31T11:39:19.049Z,5.50
2022-07-31T11:41:53.667Z,5.50
2022-07-31T11:44:21.810Z,4.70
2022-07-31T11:46:50.147Z,4.50
2022-07-31T11:49:41.666Z,6.13
2022-07-31T11:52:31.073Z,5.32
2022-07-31T11:55:10.955Z,6.03
2022-07-31T11:57:52.292Z,5.47
2022-07-31T12:00:26.662Z,4.90
2022-07-31T12:02:57.391Z,4.75
2022-07-31T12:05:37.616Z,5.00
2022-07-31T12:08:08.002Z,4.30
2022-07-31T12:10:35.332Z,4.85
2022-07-31T12:13:02.987Z,6.43
2022-07-31T12:15:29.832Z,4.22
2022-07-31T12:18:05.280Z,3.85
2022-07-31T12:20:37.248Z,3.72
2022-07-31T12:23:05.703Z,3.72
2022-07-31T12:25:46.437Z,3.67
2022-07-31T12:28:14.690Z,4.90
2022-07-31T12:30:42.443Z,4.20
2022-07-31T12:33:11.485Z,3.45
2022-07-31T12:35:56.284Z,4.72
2022-07-31T12:38:41.063Z,5.95
2022-07-31T12:41:12.694Z,6.05
2022-07-31T12:43:43.848Z,5.35
2022-07-31T12:46:23.148Z,4.57
2022-07-31T12:48:50.232Z,3.42
2022-07-31T12:51:20.221Z,3.33
2022-07-31T12:54:08.010Z,4.35
2022-07-31T12:56:37.158Z,4.82
2022-07-31T12:59:04.708Z,4.45
2022-07-31T13:01:31.823Z,4.95
2022-07-31T13:03:59.002Z,5.75
2022-07-31T13:06:30.486Z,3.53
2022-07-31T13:08:57.770Z,3.95
2022-07-31T13:11:46.822Z,3.75
2022-07-31T13:14:19.628Z,4.20
2022-07-31T13:16:47.799Z,4.63
2022-07-31T13:19:15.477Z,2.67
2022-07-31T13:21:48.488Z,7.50
2022-07-31T13:24:21.133Z,5.03
2022-07-31T13:26:49.907Z,4.75
2022-07-31T13:29:17.725Z,3.97
2022-07-31T13:31:44.796Z,4.28
2022-07-31T13:34:11.875Z,3.22
2022-07-31T13:36:39.782Z,3.13
2022-07-31T13:39:08.196Z,6.30
2022-07-31T13:41:35.620Z,4.43
2022-07-31T13:44:03.266Z,5.07
2022-07-31T13:46:31.593Z,5.70
2022-07-31T13:49:01.033Z,4.55
2022-07-31T13:51:29.454Z,4.53
2022-07-31T13:53:56.274Z,3.78
2022-07-31T13:56:39.637Z,4.45
2022-07-31T13:59:13.604Z,4.03
2022-07-31T14:02:03.359Z,5.10
2022-07-31T14:04:30.323Z,4.70
2022-07-31T14:07:04.272Z,4.82
2022-07-31T14:09:34.679Z,4.50
2022-07-31T14:12:03.826Z,5.18
2022-07-31T14:14:32.387Z,4.97
2022-07-31T14:16:59.143Z,4.60
2022-07-31T14:19:26.032Z,4.70
2022-07-31T14:21:56.423Z,4.68
2022-07-31T14:24:24.978Z,3.95
2022-07-31T14:26:51.794Z,5.15
2022-07-31T14:29:18.688Z,5.32
2022-07-31T14:31:45.371Z,4.03
2022-07-31T14:34:12.096Z,3.25
2022-07-31T14:36:38.976Z,5.28
2022-07-31T14:39:05.957Z,5.70
2022-07-31T14:41:32.697Z,5.25
2022-07-31T14:43:59.964Z,5.20
2022-07-31T14:46:26.739Z,4.50
2022-07-31T14:48:53.895Z,5.38
2022-07-31T14:51:20.803Z,4.90
2022-07-31T14:53:47.910Z,4.10
2022-07-31T14:56:19.301Z,5.90
2022-07-31T14:58:57.691Z,4.78
2022-07-31T15:01:26.915Z,3.70
2022-07-31T15:03:58.208Z,4.80
2022-07-31T15:06:41.512Z,5.72
2022-07-31T15:09:15.024Z,5.07
2022-07-31T15:12:00.969Z,6.60
2022-07-31T15:14:29.827Z,5.10
2022-07-31T15:16:57.087Z,4.40
2022-07-31T15:19:25.361Z,4.63
2022-07-31T15:22:15.747Z,4.82
2022-07-31T15:24:45.534Z,4.80
2022-07-31T15:27:15.910Z,5.10
2022-07-31T15:30:05.865Z,5.95
2022-07-31T15:32:29.890Z,6.43
2022-07-31T15:34:57.594Z,5.03
2022-07-31T15:37:24.330Z,4.90
2022-07-31T15:40:02.198Z,4.57
2022-07-31T15:42:33.346Z,5.60
2022-07-31T15:45:01.206Z,4.50
2022-07-31T15:47:28.224Z,6.38
2022-07-31T15:49:55.487Z,3.55
2022-07-31T15:52:22.711Z,4.90
2022-07-31T15:54:51.688Z,6.50
2022-07-31T15:57:23.821Z,3.63
2022-07-31T15:59:54.475Z,4.68
2022-07-31T16:02:22.456Z,4.35
2022-07-31T16:04:53.455Z,7.78
2022-07-31T16:08:29.640Z,4.55
2022-07-31T16:10:15.185Z,4.07
2022-07-31T16:12:47.987Z,4.15
2022-07-31T16:15:16.542Z,4.78
2022-07-31T16:17:44.092Z,4.28
2022-07-31T16:20:26.684Z,4.30
2022-07-31T16:22:55.966Z,4.85
2022-07-31T16:25:24.129Z,3.83
2022-07-31T16:27:50.853Z,3.53
2022-07-31T16:30:17.693Z,4.32
2022-07-31T16:32:44.973Z,3.30
2022-07-31T16:35:12.578Z,4.80
2022-07-31T16:37:50.252Z,4.32
2022-07-31T16:40:30.104Z,4.40
2022-07-31T16:43:50.053Z,4.32
2022-07-31T16:45:52.104Z,5.82
2022-07-31T16:48:19.155Z,4.25
2022-07-31T16:50:48.129Z,4.55
2022-07-31T16:54:11.135Z,4.13
2022-07-31T16:56:12.159Z,5.10
2022-07-31T16:58:39.463Z,5.07
2022-07-31T17:01:53.231Z,5.50
2022-07-31T17:04:01.917Z,4.85
2022-07-31T17:09:16.241Z,4.75
2022-07-31T17:11:48.410Z,5.43
2022-07-31T17:16:47.096Z,4.97
2022-07-31T17:19:16.816Z,5.18
2022-07-31T17:22:04.831Z,4.53
2022-07-31T17:24:31.815Z,4.57
2022-07-31T17:26:59.723Z,3.50
2022-07-31T17:29:26.711Z,4.50
2022-07-31T17:31:53.507Z,4.85
2022-07-31T17:34:20.226Z,4.70
2022-07-31T17:36:50.033Z,4.15
2022-07-31T17:39:17.071Z,3.78
2022-07-31T17:41:44.117Z,6.53
2022-07-31T17:44:11.034Z,5.38
2022-07-31T17:46:43.877Z,5.18
2022-07-31T17:49:20.559Z,4.05
2022-07-31T17:51:58.869Z,4.18
2022-07-31T17:54:35.050Z,6.43
2022-07-31T17:57:02.553Z,6.10
2022-07-31T17:59:30.387Z,5.60
2022-07-31T18:02:01.103Z,7.30
2022-07-31T18:04:29.532Z,4.75
2022-07-31T18:06:57.632Z,4.28
2022-07-31T18:09:25.065Z,4.63
2022-07-31T18:11:52.674Z,5.03
2022-07-31T18:14:20.112Z,4.45
2022-07-31T18:16:47.522Z,6.03
2022-07-31T18:19:14.669Z,6.43
2022-07-31T18:21:41.617Z,5.30
2022-07-31T18:24:08.702Z,5.78
2022-07-31T18:26:36.077Z,5.43
2022-07-31T18:29:03.575Z,7.10
2022-07-31T18:31:34.394Z,5.70
2022-07-31T18:34:04.471Z,6.57
2022-07-31T18:36:33.052Z,6.75
2022-07-31T18:38:59.973Z,8.80
2022-07-31T18:41:27.479Z,6.97
2022-07-31T18:43:54.825Z,6.80
2022-07-31T18:46:23.678Z,5.60
2022-07-31T18:48:55.421Z,6.75
2022-07-31T18:51:24.003Z,11.77
2022-07-31T18:53:51.488Z,11.10
2022-07-31T18:56:21.340Z,12.02
2022-07-31T18:58:48.221Z,17.35
2022-07-31T19:01:15.026Z,17.13
2022-07-31T19:03:41.722Z,15.32
2022-07-31T19:06:08.591Z,14.43
2022-07-31T19:08:35.236Z,12.05
2022-07-31T19:11:02.081Z,14.80
2022-07-31T19:13:29.223Z,11.85
2022-07-31T19:15:56.487Z,10.48
2022-07-31T19:18:28.670Z,11.30
2022-07-31T19:21:21.254Z,11.18
2022-07-31T19:23:43.977Z,9.30
2022-07-31T19:26:11.040Z,10.27
2022-07-31T19:28:39.549Z,9.32
2022-07-31T19:31:07.287Z,9.38
2022-07-31T19:33:34.085Z,9.25
2022-07-31T19:36:02.861Z,13.20
2022-07-31T19:38:31.903Z,10.48
2022-07-31T19:40:59.529Z,9.90
2022-07-31T19:43:26.571Z,11.75
2022-07-31T19:46:09.678Z,10.20
2022-07-31T19:48:43.815Z,13.35
2022-07-31T19:51:11.611Z,8.77
2022-07-31T19:53:39.384Z,10.68
2022-07-31T19:56:06.624Z,9.25
2022-07-31T19:58:35.067Z,10.68
2022-07-31T20:01:03.197Z,10.93
2022-07-31T20:03:30.248Z,11.90
2022-07-31T20:05:57.732Z,12.25
2022-07-31T20:08:24.467Z,10.55
2022-07-31T20:10:51.666Z,11.52
2022-07-31T20:13:19.262Z,13.93
2022-07-31T20:15:51.939Z,11.82
2022-07-31T20:18:27.603Z,12.88
2022-07-31T20:20:57.479Z,12.43
2022-07-31T20:23:25.586Z,13.10
2022-07-31T20:25:52.417Z,14.02
2022-07-31T20:28:19.368Z,12.50
2022-07-31T20:30:46.457Z,12.93
2022-07-31T20:33:13.636Z,14.05
2022-07-31T20:35:48.051Z,12.30
2022-07-31T20:38:21.594Z,13.32
2022-07-31T20:40:53.588Z,12.85
2022-07-31T20:43:26.765Z,17.33
2022-07-31T20:45:57.267Z,16.13
2022-07-31T20:48:31.120Z,13.02
2022-07-31T20:51:03.412Z,13.57
2022-07-31T20:53:30.819Z,12.88
2022-07-31T20:55:58.705Z,13.30
2022-07-31T20:58:26.567Z,14.73
2022-07-31T21:00:54.230Z,12.52
2022-07-31T21:03:21.376Z,16.60
2022-07-31T21:05:48.356Z,17.73
2022-07-31T21:08:16.157Z,18.50
2022-07-31T21:10:43.052Z,14.10
2022-07-31T21:13:10.224Z,15.85
2022-07-31T21:15:43.828Z,15.52
2022-07-31T21:18:16.179Z,17.00
2022-07-31T21:20:51.197Z,18.25
2022-07-31T21:23:23.745Z,16.20
2022-07-31T21:28:22.136Z,15.52
2022-07-31T21:30:49.760Z,18.85
2022-07-31T21:33:18.291Z,19.02
2022-07-31T21:35:46.396Z,20.48
2022-07-31T21:38:15.649Z,20.35
2022-07-31T21:40:43.358Z,21.52
2022-07-31T21:43:10.348Z,22.40
2022-07-31T21:45:50.325Z,23.15
2022-07-31T21:48:23.375Z,20.38
2022-07-31T21:50:50.880Z,21.63
2022-07-31T21:53:17.675Z,22.85
2022-07-31T21:55:44.452Z,24.65
2022-07-31T21:58:11.414Z,23.80
2022-07-31T22:00:38.335Z,25.00
2022-07-31T22:03:05.750Z,28.67
2022-07-31T22:05:52.015Z,25.13
2022-07-31T22:08:19.712Z,25.20
2022-07-31T22:10:49.125Z,25.10
2022-07-31T22:13:15.878Z,28.13
2022-07-31T22:15:50.419Z,26.42
2022-07-31T22:20:58.758Z,24.73
2022-07-31T22:23:26.998Z,24.38
2022-07-31T22:25:54.327Z,26.42
2022-07-31T22:28:23.085Z,25.27
2022-07-31T22:30:50.907Z,24.25
2022-07-31T22:33:18.482Z,24.73
2022-07-31T22:35:58.604Z,26.10
2022-07-31T22:38:29.410Z,24.88
2022-07-31T22:40:56.747Z,26.25
2022-07-31T22:44:10.751Z,24.73
2022-07-31T22:46:13.917Z,24.40
2022-07-31T22:48:41.204Z,25.45
2022-07-31T22:51:09.056Z,26.17
2022-07-31T22:53:37.596Z,25.33
2022-07-31T22:56:04.550Z,22.35
2022-07-31T22:58:31.412Z,26.92
2022-07-31T23:00:58.058Z,26.05
2022-07-31T23:03:24.871Z,27.95
2022-07-31T23:06:02.872Z,23.83
2022-07-31T23:08:38.518Z,26.30
2022-07-31T23:11:05.359Z,25.98
2022-07-31T23:13:32.115Z,23.48
2022-07-31T23:15:59.523Z,22.92
2022-07-31T23:18:26.566Z,23.65
2022-07-31T23:20:53.326Z,20.33
2022-07-31T23:23:20.056Z,21.25
2022-07-31T23:25:46.758Z,19.52
2022-07-31T23:28:13.470Z,19.95
2022-07-31T23:30:40.411Z,19.02
2022-07-31T23:33:07.156Z,20.85
2022-07-31T23:35:33.941Z,23.08
2022-07-31T23:38:00.825Z,19.65
2022-07-31T23:40:27.713Z,19.33
2022-07-31T23:42:54.618Z,19.08
2022-07-31T23:45:23.399Z,20.40
2022-07-31T23:47:50.925Z,20.00
2022-07-31T23:50:17.935Z,16.35
2022-07-31T23:52:45.461Z,18.00
2022-07-31T23:55:13.160Z,17.33
2022-07-31T23:57:40.683Z,18.00
